createdAt,value
2023-07-28T00:01:11.724Z,7.23
2023-07-28T00:03:38.963Z,5.63
2023-07-28T00:06:06.395Z,8.63
2023-07-28T00:08:33.600Z,7.37
2023-07-28T00:11:00.810Z,9.97
2023-07-28T00:13:28.054Z,7.00
2023-07-28T00:15:55.247Z,7.33
2023-07-28T00:18:22.617Z,7.53
2023-07-28T00:20:49.983Z,7.50
2023-07-28T00:23:17.280Z,6.23
2023-07-28T00:25:44.491Z,8.23
2023-07-28T00:28:11.795Z,8.77
2023-07-28T00:30:39.187Z,7.17
2023-07-28T00:33:06.500Z,6.83
2023-07-28T00:35:34.208Z,5.47
2023-07-28T00:38:01.492Z,8.07
2023-07-28T00:40:28.809Z,7.60
2023-07-28T00:42:56.007Z,6.70
2023-07-28T00:45:23.684Z,7.17
2023-07-28T00:47:51.073Z,6.90
2023-07-28T00:50:18.330Z,7.27
2023-07-28T00:52:47.295Z,6.73
2023-07-28T00:55:14.678Z,6.20
2023-07-28T00:57:41.904Z,6.80
2023-07-28T01:00:09.464Z,9.50
2023-07-28T01:02:37.051Z,7.83
2023-07-28T01:05:04.715Z,8.23
2023-07-28T01:07:50.506Z,8.00
2023-07-28T01:10:24.489Z,9.17
2023-07-28T01:12:51.706Z,6.50
2023-07-28T01:15:18.921Z,8.17
2023-07-28T01:17:46.176Z,9.07
2023-07-28T01:20:13.661Z,8.50
2023-07-28T01:22:59.253Z,7.50
2023-07-28T01:25:34.583Z,6.57
2023-07-28T01:28:02.274Z,6.37
2023-07-28T01:30:29.812Z,6.00
2023-07-28T01:32:57.426Z,7.23
2023-07-28T01:35:24.918Z,7.93
2023-07-28T01:37:52.136Z,6.43
2023-07-28T01:40:19.991Z,7.40
2023-07-28T01:42:47.371Z,6.30
2023-07-28T01:45:14.605Z,8.27
2023-07-28T01:47:41.842Z,7.40
2023-07-28T01:50:09.269Z,7.37
2023-07-28T01:52:36.777Z,8.70
2023-07-28T01:55:04.056Z,8.20
2023-07-28T01:57:34.288Z,7.90
2023-07-28T02:00:01.698Z,6.43
2023-07-28T02:02:29.160Z,7.80
2023-07-28T02:04:56.482Z,7.93
2023-07-28T02:07:23.700Z,7.83
2023-07-28T02:09:50.903Z,8.37
2023-07-28T02:12:18.135Z,7.47
2023-07-28T02:14:45.553Z,9.53
2023-07-28T02:17:12.824Z,7.73
2023-07-28T02:19:40.069Z,8.63
2023-07-28T02:22:07.478Z,9.60
2023-07-28T02:24:36.225Z,7.80
2023-07-28T02:27:03.434Z,7.10
2023-07-28T02:29:30.727Z,7.93
2023-07-28T02:31:57.942Z,7.47
2023-07-28T02:34:25.141Z,8.83
2023-07-28T02:36:52.364Z,6.73
2023-07-28T02:39:19.615Z,7.87
2023-07-28T02:41:46.920Z,8.10
2023-07-28T02:44:14.114Z,7.30
2023-07-28T02:46:41.424Z,7.20
2023-07-28T02:49:08.762Z,7.80
2023-07-28T02:51:36.011Z,9.07
2023-07-28T02:54:04.697Z,8.87
2023-07-28T02:56:35.600Z,7.13
2023-07-28T02:59:03.161Z,6.67
2023-07-28T03:01:34.326Z,7.63
2023-07-28T03:04:04.983Z,7.43
2023-07-28T03:06:32.382Z,7.07
2023-07-28T03:09:02.786Z,7.57
2023-07-28T03:11:30.034Z,7.50
2023-07-28T03:13:57.228Z,7.77
2023-07-28T03:16:24.486Z,8.37
2023-07-28T03:18:51.740Z,6.70
2023-07-28T03:21:18.932Z,7.63
2023-07-28T03:23:46.130Z,7.43
2023-07-28T03:26:13.583Z,6.53
2023-07-28T03:28:40.772Z,7.90
2023-07-28T03:31:08.031Z,7.87
2023-07-28T03:33:35.245Z,8.53
2023-07-28T03:36:02.457Z,7.77
2023-07-28T03:38:29.654Z,7.77
2023-07-28T03:40:56.828Z,6.57
2023-07-28T03:43:24.152Z,8.13
2023-07-28T03:45:51.396Z,6.70
2023-07-28T03:48:18.601Z,7.20
2023-07-28T03:50:45.805Z,7.17
2023-07-28T03:53:13.044Z,9.47
2023-07-28T03:55:40.322Z,6.93
2023-07-28T03:58:07.559Z,7.30
2023-07-28T04:00:35.416Z,6.27
2023-07-28T04:03:02.669Z,6.97
2023-07-28T04:05:29.912Z,7.43
2023-07-28T04:07:57.352Z,8.13
2023-07-28T04:10:24.633Z,7.37
2023-07-28T04:12:51.811Z,7.50
2023-07-28T04:15:19.055Z,6.50
2023-07-28T04:17:46.330Z,8.33
2023-07-28T04:20:13.711Z,6.10
2023-07-28T04:22:40.890Z,7.70
2023-07-28T04:25:08.403Z,6.60
2023-07-28T04:27:35.605Z,7.37
2023-07-28T04:30:02.992Z,6.37
2023-07-28T04:32:30.235Z,8.60
2023-07-28T04:34:58.219Z,8.40
2023-07-28T04:37:25.467Z,7.70
2023-07-28T04:39:52.965Z,8.53
2023-07-28T04:42:20.198Z,8.03
2023-07-28T04:44:47.544Z,6.07
2023-07-28T04:47:14.738Z,6.70
2023-07-28T04:49:41.950Z,8.37
2023-07-28T04:52:09.729Z,9.30
2023-07-28T04:54:37.018Z,6.73
2023-07-28T04:57:04.354Z,6.50
2023-07-28T04:59:31.586Z,7.63
2023-07-28T05:01:58.971Z,6.97
2023-07-28T05:04:26.263Z,7.57
2023-07-28T05:06:53.608Z,8.47
2023-07-28T05:09:20.855Z,6.13
2023-07-28T05:11:48.897Z,5.97
2023-07-28T05:14:16.396Z,7.33
2023-07-28T05:16:44.196Z,8.30
2023-07-28T05:19:11.509Z,5.20
2023-07-28T05:21:38.832Z,6.77
2023-07-28T05:24:06.163Z,6.53
2023-07-28T05:26:33.358Z,6.13
2023-07-28T05:29:00.617Z,6.00
2023-07-28T05:31:27.870Z,6.80
2023-07-28T05:33:55.116Z,5.27
2023-07-28T05:36:22.410Z,7.33
2023-07-28T05:38:49.737Z,6.20
2023-07-28T05:41:16.963Z,7.13
2023-07-28T05:43:44.187Z,6.63
2023-07-28T05:46:11.445Z,5.23
2023-07-28T05:48:38.656Z,5.53
2023-07-28T05:51:05.903Z,5.40
2023-07-28T05:53:33.792Z,7.10
2023-07-28T05:56:01.006Z,4.23
2023-07-28T05:58:28.191Z,5.17
2023-07-28T06:00:55.432Z,5.63
2023-07-28T06:03:22.840Z,5.63
2023-07-28T06:05:50.162Z,4.93
2023-07-28T06:08:17.344Z,5.70
2023-07-28T06:10:44.549Z,5.07
2023-07-28T06:13:11.747Z,4.73
2023-07-28T06:15:40.905Z,5.27
2023-07-28T06:18:08.421Z,4.77
2023-07-28T06:20:35.979Z,5.80
2023-07-28T06:23:03.321Z,7.27
2023-07-28T06:25:30.508Z,5.17
2023-07-28T06:27:57.776Z,4.60
2023-07-28T06:30:25.011Z,4.53
2023-07-28T06:32:52.261Z,4.60
2023-07-28T06:35:19.565Z,5.27
2023-07-28T06:37:46.748Z,5.67
2023-07-28T06:40:14.051Z,5.57
2023-07-28T06:42:41.266Z,6.37
2023-07-28T06:45:08.583Z,5.30
2023-07-28T06:47:35.826Z,5.30
2023-07-28T06:50:03.032Z,5.10
2023-07-28T06:52:30.243Z,4.17
2023-07-28T06:54:57.430Z,3.70
2023-07-28T06:57:24.667Z,4.90
2023-07-28T06:59:52.030Z,4.37
2023-07-28T07:02:19.317Z,4.37
2023-07-28T07:04:46.972Z,7.03
2023-07-28T07:07:14.188Z,3.53
2023-07-28T07:09:41.942Z,3.47
2023-07-28T07:12:11.944Z,5.93
2023-07-28T07:14:39.898Z,3.27
2023-07-28T07:17:07.407Z,7.33
2023-07-28T07:19:34.916Z,4.33
2023-07-28T07:22:03.021Z,4.37
2023-07-28T07:24:30.362Z,4.67
2023-07-28T07:26:57.571Z,5.63
2023-07-28T07:29:24.850Z,4.27
2023-07-28T07:31:55.917Z,3.00
2023-07-28T07:34:24.260Z,4.73
2023-07-28T07:36:51.828Z,2.23
2023-07-28T07:39:19.561Z,3.93
2023-07-28T07:41:46.830Z,3.77
2023-07-28T07:44:14.118Z,3.03
2023-07-28T07:46:42.324Z,3.20
2023-07-28T07:49:11.596Z,3.23
2023-07-28T07:51:38.881Z,3.10
2023-07-28T07:54:06.164Z,4.10
2023-07-28T07:56:33.482Z,5.00
2023-07-28T07:59:00.784Z,4.57
2023-07-28T08:01:27.998Z,4.40
2023-07-28T08:03:55.414Z,5.10
2023-07-28T08:06:22.670Z,4.17
2023-07-28T08:08:51.905Z,3.23
2023-07-28T08:11:19.190Z,4.33
2023-07-28T08:13:46.730Z,4.17
2023-07-28T08:16:14.007Z,3.43
2023-07-28T08:18:41.256Z,2.77
2023-07-28T08:21:08.439Z,2.77
2023-07-28T08:23:35.691Z,3.67
2023-07-28T08:26:03.002Z,2.97
2023-07-28T08:28:30.634Z,3.43
2023-07-28T08:30:59.300Z,3.73
2023-07-28T08:33:26.928Z,3.73
2023-07-28T08:35:54.147Z,3.83
2023-07-28T08:38:21.428Z,2.17
2023-07-28T08:40:48.641Z,5.53
2023-07-28T08:43:15.889Z,3.07
2023-07-28T08:45:43.361Z,3.97
2023-07-28T08:48:11.051Z,3.47
2023-07-28T08:50:38.430Z,3.10
2023-07-28T08:53:05.964Z,4.60
2023-07-28T08:55:33.940Z,3.00
2023-07-28T08:58:15.819Z,4.73
2023-07-28T09:00:43.215Z,2.87
2023-07-28T09:03:10.967Z,3.10
2023-07-28T09:05:38.962Z,3.70
2023-07-28T09:08:06.289Z,3.90
2023-07-28T09:10:52.415Z,3.33
2023-07-28T09:13:21.069Z,4.50
2023-07-28T09:15:48.400Z,3.40
2023-07-28T09:18:19.204Z,2.13
2023-07-28T09:20:46.564Z,4.27
2023-07-28T09:23:15.193Z,3.00
2023-07-28T09:25:42.425Z,2.17
2023-07-28T09:28:09.850Z,2.60
2023-07-28T09:30:47.733Z,2.93
2023-07-28T09:33:15.398Z,2.50
2023-07-28T09:35:49.604Z,2.13
2023-07-28T09:38:17.614Z,2.93
2023-07-28T09:40:45.443Z,2.90
2023-07-28T09:43:14.418Z,3.30
2023-07-28T09:45:41.982Z,1.93
2023-07-28T09:48:11.349Z,3.40
2023-07-28T09:50:39.680Z,2.07
2023-07-28T09:53:10.028Z,2.93
2023-07-28T09:55:37.713Z,3.67
2023-07-28T09:58:09.315Z,1.60
2023-07-28T10:00:38.369Z,2.43
2023-07-28T10:03:06.805Z,2.40
2023-07-28T10:05:35.518Z,2.38
2023-07-28T10:08:04.035Z,1.60
2023-07-28T10:10:31.426Z,2.07
2023-07-28T10:12:59.710Z,1.95
2023-07-28T10:15:31.263Z,1.85
2023-07-28T10:18:00.085Z,2.93
2023-07-28T10:20:37.336Z,2.20
2023-07-28T10:23:08.325Z,2.10
2023-07-28T10:25:39.210Z,1.75
2023-07-28T10:28:07.987Z,4.38
2023-07-28T10:30:39.568Z,2.65
2023-07-28T10:33:07.033Z,3.28
2023-07-28T10:35:35.364Z,3.75
2023-07-28T10:38:23.309Z,2.83
2023-07-28T10:40:52.224Z,3.67
2023-07-28T10:43:19.624Z,2.17
2023-07-28T10:45:47.396Z,1.67
2023-07-28T10:48:14.715Z,2.05
2023-07-28T10:50:42.947Z,1.90
2023-07-28T10:53:12.492Z,2.03
2023-07-28T10:55:40.775Z,4.28
2023-07-28T10:58:08.079Z,3.30
2023-07-28T11:00:35.309Z,3.00
2023-07-28T11:03:02.722Z,3.30
2023-07-28T11:05:31.024Z,2.58
2023-07-28T11:07:59.249Z,4.00
2023-07-28T11:10:27.311Z,4.57
2023-07-28T11:12:54.736Z,2.88
2023-07-28T11:15:21.989Z,2.88
2023-07-28T11:17:50.820Z,3.70
2023-07-28T11:20:21.881Z,3.28
2023-07-28T11:22:53.936Z,3.85
2023-07-28T11:25:22.174Z,3.45
2023-07-28T11:27:49.730Z,3.22
2023-07-28T11:30:17.857Z,4.75
2023-07-28T11:32:46.533Z,6.32
2023-07-28T11:35:15.081Z,4.18
2023-07-28T11:37:43.140Z,3.97
2023-07-28T11:40:13.723Z,3.28
2023-07-28T11:42:48.663Z,4.15
2023-07-28T11:45:16.738Z,2.92
2023-07-28T11:48:13.199Z,3.25
2023-07-28T11:50:41.728Z,3.90
2023-07-28T11:53:10.189Z,4.25
2023-07-28T11:55:38.008Z,4.05
2023-07-28T11:58:06.573Z,3.22
2023-07-28T12:00:37.336Z,3.60
2023-07-28T12:03:10.866Z,4.05
2023-07-28T12:05:51.693Z,3.47
2023-07-28T12:08:34.862Z,2.83
2023-07-28T12:13:32.673Z,4.80
2023-07-28T12:21:03.699Z,3.25
2023-07-28T12:26:01.143Z,3.13
2023-07-28T12:28:28.385Z,3.05
2023-07-28T12:30:57.466Z,2.38
2023-07-28T12:41:10.097Z,4.15
2023-07-28T12:48:48.196Z,2.75
2023-07-28T12:51:30.831Z,2.85
2023-07-28T12:53:58.564Z,2.50
2023-07-28T13:01:26.069Z,2.20
2023-07-28T13:03:54.538Z,2.22
2023-07-28T13:06:21.872Z,1.35
2023-07-28T13:11:19.552Z,2.47
2023-07-28T13:13:46.757Z,2.33
2023-07-28T13:16:14.106Z,4.53
2023-07-28T13:18:41.944Z,1.75
2023-07-28T13:21:09.214Z,1.90
2023-07-28T13:23:36.427Z,2.80
2023-07-28T13:26:05.544Z,4.18
2023-07-28T13:28:32.942Z,1.85
2023-07-28T13:31:00.301Z,2.63
2023-07-28T13:33:28.064Z,1.92
2023-07-28T13:35:55.384Z,2.13
2023-07-28T13:38:22.588Z,2.63
2023-07-28T13:40:49.837Z,1.88
2023-07-28T13:43:17.831Z,1.92
2023-07-28T13:45:45.360Z,1.75
2023-07-28T13:50:42.747Z,2.00
2023-07-28T13:55:41.740Z,2.80
2023-07-28T13:58:09.410Z,2.97
2023-07-28T14:00:36.725Z,2.20
2023-07-28T14:03:04.553Z,2.40
2023-07-28T14:05:31.840Z,2.38
2023-07-28T14:07:59.161Z,2.65
2023-07-28T14:10:26.583Z,2.60
2023-07-28T14:12:53.827Z,3.88
2023-07-28T14:15:21.024Z,1.83
2023-07-28T14:17:48.260Z,3.15
2023-07-28T14:20:15.547Z,3.90
2023-07-28T14:22:42.744Z,3.80
2023-07-28T14:25:10.178Z,4.10
2023-07-28T14:27:37.363Z,5.10
2023-07-28T14:30:04.707Z,4.28
2023-07-28T14:32:32.030Z,4.70
2023-07-28T14:34:59.259Z,4.75
2023-07-28T14:37:26.520Z,3.45
2023-07-28T14:39:54.232Z,3.83
2023-07-28T14:42:21.442Z,3.08
2023-07-28T14:44:48.738Z,3.45
2023-07-28T14:47:15.953Z,2.22
2023-07-28T14:49:43.162Z,5.03
2023-07-28T14:52:10.983Z,3.88
2023-07-28T14:54:38.185Z,3.55
2023-07-28T14:57:05.810Z,6.85
2023-07-28T14:59:34.490Z,4.43
2023-07-28T15:02:01.714Z,3.15
2023-07-28T15:04:29.146Z,4.35
2023-07-28T15:06:56.473Z,3.25
2023-07-28T15:09:24.757Z,3.50
2023-07-28T15:11:52.024Z,4.72
2023-07-28T15:14:19.310Z,3.15
2023-07-28T15:16:46.680Z,4.35
2023-07-28T15:19:13.972Z,3.70
2023-07-28T15:21:41.238Z,2.97
2023-07-28T15:24:08.483Z,4.20
2023-07-28T15:26:36.969Z,4.40
2023-07-28T15:29:04.510Z,3.13
2023-07-28T15:31:31.792Z,3.15
2023-07-28T15:33:58.997Z,4.80
2023-07-28T15:36:26.291Z,4.47
2023-07-28T15:38:54.061Z,5.78
2023-07-28T15:41:21.269Z,5.40
2023-07-28T15:43:48.447Z,4.65
2023-07-28T15:46:15.949Z,4.35
2023-07-28T15:48:44.860Z,3.60
2023-07-28T15:51:12.398Z,3.80
2023-07-28T15:53:39.675Z,3.03
2023-07-28T15:56:07.191Z,3.63
2023-07-28T15:58:34.698Z,4.53
2023-07-28T16:01:02.129Z,6.13
2023-07-28T16:03:29.371Z,5.90
2023-07-28T16:05:57.290Z,4.93
2023-07-28T16:08:24.553Z,3.92
2023-07-28T16:10:51.739Z,4.95
2023-07-28T16:13:18.993Z,4.38
2023-07-28T16:15:46.446Z,3.25
2023-07-28T16:18:13.719Z,4.55
2023-07-28T16:20:41.087Z,3.90
2023-07-28T16:23:08.292Z,4.25
2023-07-28T16:25:35.480Z,2.92
2023-07-28T16:28:02.752Z,2.83
2023-07-28T16:30:30.146Z,3.10
2023-07-28T16:32:57.805Z,3.17
2023-07-28T16:35:25.068Z,4.15
2023-07-28T16:37:52.263Z,4.60
2023-07-28T16:40:19.521Z,4.20
2023-07-28T16:42:48.134Z,3.53
2023-07-28T16:45:15.527Z,3.90
2023-07-28T16:47:42.778Z,4.05
2023-07-28T16:50:10.274Z,3.92
2023-07-28T16:52:37.583Z,4.03
2023-07-28T16:55:05.077Z,4.38
2023-07-28T16:57:32.313Z,4.93
2023-07-28T16:59:59.531Z,3.58
2023-07-28T17:02:26.957Z,3.45
2023-07-28T17:04:54.537Z,4.85
2023-07-28T17:07:21.851Z,2.90
2023-07-28T17:09:49.033Z,4.97
2023-07-28T17:12:16.435Z,4.40
2023-07-28T17:14:43.645Z,3.38
2023-07-28T17:17:10.909Z,4.70
2023-07-28T17:19:38.096Z,4.63
2023-07-28T17:22:05.467Z,5.15
2023-07-28T17:24:33.940Z,4.10
2023-07-28T17:27:02.066Z,4.18
2023-07-28T17:29:29.314Z,4.50
2023-07-28T17:31:56.500Z,3.55
2023-07-28T17:34:23.802Z,5.70
2023-07-28T17:36:51.071Z,3.63
2023-07-28T17:39:19.434Z,4.47
2023-07-28T17:41:46.690Z,4.47
2023-07-28T17:44:13.901Z,3.80
2023-07-28T17:46:41.116Z,4.53
2023-07-28T17:49:09.213Z,4.57
2023-07-28T17:51:36.741Z,4.40
2023-07-28T17:54:04.402Z,4.20
2023-07-28T17:56:31.776Z,4.32
2023-07-28T17:58:59.186Z,4.95
2023-07-28T18:01:26.451Z,4.13
2023-07-28T18:03:55.507Z,5.30
2023-07-28T18:06:24.077Z,4.45
2023-07-28T18:08:51.620Z,5.78
2023-07-28T18:11:18.842Z,3.67
2023-07-28T18:13:46.032Z,5.32
2023-07-28T18:16:15.507Z,5.38
2023-07-28T18:18:42.855Z,5.22
2023-07-28T18:21:10.059Z,4.72
2023-07-28T18:23:37.302Z,4.15
2023-07-28T18:26:05.566Z,4.75
2023-07-28T18:28:32.868Z,5.35
2023-07-28T18:31:00.165Z,6.57
2023-07-28T18:33:30.008Z,6.05
2023-07-28T18:36:01.259Z,7.38
2023-07-28T18:38:28.532Z,7.32
2023-07-28T18:40:55.794Z,6.88
2023-07-28T18:43:23.062Z,5.60
2023-07-28T18:45:50.298Z,6.38
2023-07-28T18:48:21.466Z,6.10
2023-07-28T18:50:48.819Z,6.57
2023-07-28T18:53:16.057Z,5.80
2023-07-28T18:55:43.270Z,7.20
2023-07-28T18:58:10.481Z,6.13
2023-07-28T19:00:37.716Z,5.77
2023-07-28T19:03:05.088Z,5.60
2023-07-28T19:05:32.411Z,5.17
2023-07-28T19:07:59.680Z,5.43
2023-07-28T19:10:26.910Z,7.23
2023-07-28T19:12:54.264Z,5.70
2023-07-28T19:15:44.658Z,5.83
2023-07-28T19:18:09.203Z,4.43
2023-07-28T19:20:36.582Z,5.83
2023-07-28T19:23:03.804Z,5.83
2023-07-28T19:25:31.062Z,6.70
2023-07-28T19:27:58.408Z,5.87
2023-07-28T19:30:25.799Z,6.77
2023-07-28T19:32:53.029Z,5.17
2023-07-28T19:35:20.654Z,5.47
2023-07-28T19:37:47.876Z,6.37
2023-07-28T19:40:16.056Z,5.80
2023-07-28T19:42:43.316Z,6.10
2023-07-28T19:45:10.766Z,7.10
2023-07-28T19:47:38.487Z,6.47
2023-07-28T19:52:39.135Z,7.47
2023-07-28T19:55:06.709Z,5.80
2023-07-28T19:57:33.969Z,7.63
2023-07-28T20:00:01.239Z,6.23
2023-07-28T20:02:28.587Z,6.60
2023-07-28T20:04:55.950Z,5.80
2023-07-28T20:07:25.925Z,7.63
2023-07-28T20:09:53.114Z,7.60
2023-07-28T20:12:22.652Z,7.20
2023-07-28T20:14:51.057Z,7.03
2023-07-28T20:17:18.300Z,7.20
2023-07-28T20:19:45.543Z,6.37
2023-07-28T20:22:14.330Z,6.43
2023-07-28T20:24:41.567Z,7.07
2023-07-28T20:27:10.340Z,5.43
2023-07-28T20:29:37.833Z,6.93
2023-07-28T20:32:05.834Z,6.03
2023-07-28T20:34:33.044Z,6.37
2023-07-28T20:37:00.258Z,6.47
2023-07-28T20:39:27.597Z,5.80
2023-07-28T20:41:54.810Z,6.93
2023-07-28T20:44:22.007Z,5.40
2023-07-28T20:46:49.508Z,5.87
2023-07-28T20:49:18.633Z,6.00
2023-07-28T20:51:45.922Z,7.60
2023-07-28T20:54:13.177Z,8.13
2023-07-28T20:56:40.388Z,5.80
2023-07-28T20:59:07.676Z,4.97
2023-07-28T21:01:34.935Z,6.43
2023-07-28T21:04:02.131Z,6.97
2023-07-28T21:06:29.390Z,7.40
2023-07-28T21:08:56.645Z,7.37
2023-07-28T21:11:23.836Z,6.43
2023-07-28T21:13:51.062Z,5.80
2023-07-28T21:16:18.423Z,6.03
2023-07-28T21:18:45.706Z,6.97
2023-07-28T21:21:13.055Z,8.27
2023-07-28T21:23:40.272Z,6.50
2023-07-28T21:26:07.938Z,6.03
2023-07-28T21:28:35.346Z,6.57
2023-07-28T21:31:02.697Z,6.30
2023-07-28T21:33:29.939Z,7.03
2023-07-28T21:35:57.188Z,6.30
2023-07-28T21:38:24.439Z,7.70
2023-07-28T21:40:51.708Z,6.33
2023-07-28T21:43:19.034Z,6.83
2023-07-28T21:45:46.361Z,8.63
2023-07-28T21:48:13.663Z,7.57
2023-07-28T21:50:40.965Z,7.00
2023-07-28T21:53:08.348Z,5.90
2023-07-28T21:55:35.725Z,7.17
2023-07-28T21:58:02.976Z,6.30
2023-07-28T22:00:30.169Z,6.73
2023-07-28T22:02:57.480Z,7.57
2023-07-28T22:05:24.747Z,7.23
2023-07-28T22:07:52.998Z,7.00
2023-07-28T22:10:20.195Z,7.20
2023-07-28T22:12:47.431Z,6.70
2023-07-28T22:15:14.692Z,6.77
2023-07-28T22:17:42.068Z,6.30
2023-07-28T22:20:10.841Z,5.83
2023-07-28T22:22:38.030Z,6.73
2023-07-28T22:25:05.400Z,6.03
2023-07-28T22:27:32.637Z,6.20
2023-07-28T22:29:59.992Z,8.03
2023-07-28T22:32:27.234Z,7.10
2023-07-28T22:34:54.466Z,7.20
2023-07-28T22:37:21.645Z,7.23
2023-07-28T22:39:48.980Z,7.50
2023-07-28T22:42:16.214Z,7.10
2023-07-28T22:44:43.466Z,6.80
2023-07-28T22:47:10.720Z,5.97
2023-07-28T22:49:37.908Z,8.60
2023-07-28T22:52:06.047Z,7.13
2023-07-28T22:54:33.296Z,6.07
2023-07-28T22:57:00.766Z,6.00
2023-07-28T22:59:28.649Z,6.53
2023-07-28T23:01:55.880Z,6.37
2023-07-28T23:04:23.204Z,6.57
2023-07-28T23:06:50.465Z,7.13
2023-07-28T23:09:17.648Z,6.93
2023-07-28T23:11:45.972Z,6.70
2023-07-28T23:14:13.315Z,7.07
2023-07-28T23:16:40.641Z,6.30
2023-07-28T23:19:08.002Z,7.30
2023-07-28T23:21:35.184Z,6.30
2023-07-28T23:24:02.806Z,6.73
2023-07-28T23:26:31.204Z,7.70
2023-07-28T23:28:58.553Z,7.50
2023-07-28T23:31:28.726Z,7.10
2023-07-28T23:33:56.128Z,6.40
2023-07-28T23:36:24.720Z,7.33
2023-07-28T23:38:52.040Z,7.07
2023-07-28T23:41:19.261Z,7.80
2023-07-28T23:43:46.519Z,7.50
2023-07-28T23:46:13.736Z,6.80
2023-07-28T23:48:40.998Z,9.07
2023-07-28T23:51:08.189Z,7.33
2023-07-28T23:53:35.449Z,8.37
2023-07-28T23:56:02.755Z,7.43
2023-07-28T23:58:29.941Z,8.90
